Time;durP1;ratioP1;P1;durP2;ratioP2;P2;SDS_P1;SDS_P2;PMS_P1;PMS_P2;Temp;Humidity;BMP_temperature;BMP_pressure;BME280_temperature;BME280_humidity;BME280_pressure;Samples;Min_cycle;Max_cycle;Signal;HPM_P1;HPM_P2
2022/07/29 00:01:19;;;;;;;6.07;1.60;;;;;;;18.43;75.65;96510.72;4965838;28;20577;-73
2022/07/29 00:03:44;;;;;;;6.97;1.35;;;;;;;18.45;75.12;96508.56;4962270;28;20027;-73
2022/07/29 00:06:10;;;;;;;8.73;1.98;;;;;;;18.39;74.48;96513.25;4966704;28;20140;-72
2022/07/29 00:08:35;;;;;;;4.75;1.50;;;;;;;18.43;73.60;96511.53;4966100;28;20074;-73
2022/07/29 00:11:03;;;;;;;5.90;1.50;;;;;;;18.37;75.32;96501.91;4967699;28;20105;-72
2022/07/29 00:13:28;;;;;;;4.50;1.50;;;;;;;18.42;74.75;96509.13;4965321;28;20489;-73
2022/07/29 00:15:54;;;;;;;7.22;1.48;;;;;;;18.37;75.23;96510.03;4966408;28;20042;-73
2022/07/29 00:18:19;;;;;;;6.70;1.48;;;;;;;18.43;74.22;96503.41;4965211;28;20096;-72
2022/07/29 00:20:45;;;;;;;4.30;1.30;;;;;;;18.44;73.31;96501.50;4964499;28;20034;-73
2022/07/29 00:23:11;;;;;;;6.60;1.50;;;;;;;18.38;73.40;96506.22;4964489;28;20039;-73
2022/07/29 00:25:36;;;;;;;9.85;1.83;;;;;;;18.33;73.75;96501.69;4966391;28;20081;-73
2022/07/29 00:28:02;;;;;;;4.85;1.45;;;;;;;18.30;74.42;96504.19;4965081;28;20041;-73
2022/07/29 00:30:29;;;;;;;9.55;1.65;;;;;;;18.24;73.57;96513.50;4965880;28;20430;-73
2022/07/29 00:32:55;;;;;;;4.35;1.70;;;;;;;18.22;74.95;96510.28;4964664;28;20023;-73
2022/07/29 00:38:04;;;;;;;5.53;1.60;;;;;;;18.16;74.95;96501.44;4963416;28;20089;-73
2022/07/29 00:40:30;;;;;;;9.00;2.65;;;;;;;18.16;74.75;96506.06;4949838;28;20537;-73
2022/07/29 00:42:55;;;;;;;6.72;1.80;;;;;;;18.15;75.00;96499.03;4965478;28;20051;-73
2022/07/29 00:45:21;;;;;;;6.55;1.60;;;;;;;18.11;74.95;96496.09;4949050;28;20722;-73
2022/07/29 00:47:47;;;;;;;8.57;1.52;;;;;;;18.10;74.26;96489.06;4964988;28;20030;-73
2022/07/29 00:50:14;;;;;;;6.50;1.50;;;;;;;18.09;74.46;96496.38;4965326;28;20170;-73
2022/07/29 00:52:41;;;;;;;5.15;1.48;;;;;;;18.02;74.76;96493.25;4962772;28;20139;-73
2022/07/29 00:55:09;;;;;;;6.53;1.45;;;;;;;18.07;75.90;96495.09;4965693;28;20034;-73
2022/07/29 00:57:35;;;;;;;4.63;1.33;;;;;;;17.97;73.86;96485.19;4964039;28;20516;-73
2022/07/29 01:00:00;;;;;;;5.18;1.60;;;;;;;17.91;75.42;96489.09;4962324;28;20117;-73
2022/07/29 01:02:26;;;;;;;7.05;1.58;;;;;;;17.85;75.79;96489.47;4964220;28;20039;-73
2022/07/29 01:04:52;;;;;;;8.95;1.45;;;;;;;17.79;76.50;96484.13;4965777;28;20178;-73
2022/07/29 01:07:18;;;;;;;7.43;1.50;;;;;;;17.77;76.81;96477.41;4962205;28;20073;-73
2022/07/29 01:09:45;;;;;;;6.03;1.73;;;;;;;17.75;76.34;96483.13;4965676;28;20117;-73
2022/07/29 01:12:16;;;;;;;5.20;1.52;;;;;;;17.79;76.32;96484.13;4964174;28;20537;-73
2022/07/29 01:14:42;;;;;;;4.93;1.65;;;;;;;17.77;75.74;96485.53;4965237;28;20039;-73
2022/07/29 01:17:17;;;;;;;5.63;1.58;;;;;;;17.76;76.40;96483.94;4965838;28;20883;-73
2022/07/29 01:19:55;;;;;;;6.90;1.38;;;;;;;17.83;76.13;96484.38;4966704;28;20492;-73
2022/07/29 01:22:28;;;;;;;9.10;1.58;;;;;;;17.86;75.38;96469.44;4965619;28;20070;-73
2022/07/29 01:24:57;;;;;;;6.03;1.50;;;;;;;17.86;75.15;96485.66;4964074;28;20448;-73
2022/07/29 01:28:07;;;;;;;5.88;1.55;;;;;;;17.79;75.47;96476.00;4963365;28;20035;-73
2022/07/29 01:30:36;;;;;;;4.35;1.42;;;;;;;17.65;76.52;96479.72;4930983;28;20750;-73
2022/07/29 01:34:02;;;;;;;8.45;1.63;;;;;;;17.65;77.98;96468.88;4958425;28;20121;-73
2022/07/29 01:36:10;;;;;;;6.25;1.80;;;;;;;17.70;77.29;96463.41;4958526;28;20252;-73
2022/07/29 01:38:41;;;;;;;6.80;1.60;;;;;;;17.71;77.63;96462.34;4964197;28;20111;-73
2022/07/29 01:41:12;;;;;;;7.75;1.75;;;;;;;17.77;76.69;96459.28;4965434;28;20074;-73
2022/07/29 01:44:11;;;;;;;6.00;1.80;;;;;;;17.81;77.91;96443.22;4963873;28;20705;-73
2022/07/29 01:46:39;;;;;;;4.25;1.30;;;;;;;17.80;77.00;96447.84;4963992;28;20035;-73
2022/07/29 01:49:21;;;;;;;5.30;1.60;;;;;;;17.81;77.82;96443.22;4961484;28;20479;-73
2022/07/29 01:51:59;;;;;;;9.23;1.70;;;;;;;17.81;76.74;96445.94;4964570;28;20043;-73
2022/07/29 01:54:30;;;;;;;7.10;1.85;;;;;;;17.83;76.14;96427.53;4965184;28;20042;-73
2022/07/29 01:56:58;;;;;;;;;;;;;;;17.89;77.15;96428.22;4963162;28;21483;-73
2022/07/29 01:59:27;;;;;;;4.60;1.52;;;;;;;17.88;76.03;96424.72;4964258;28;20040;-73
2022/07/29 02:01:54;;;;;;;12.07;1.75;;;;;;;17.87;77.59;96423.13;4963717;28;20094;-73
2022/07/29 02:04:21;;;;;;;6.18;1.55;;;;;;;17.76;78.04;96421.69;4964984;28;20031;-73
2022/07/29 02:06:50;;;;;;;8.77;2.83;;;;;;;17.76;78.65;96427.91;4944374;28;20054;-73
2022/07/29 02:09:19;;;;;;;4.32;1.52;;;;;;;17.68;78.71;96423.13;4963305;28;20087;-72
2022/07/29 02:11:50;;;;;;;10.23;1.95;;;;;;;17.60;79.79;96418.38;4965507;28;20073;-73
2022/07/29 02:14:19;;;;;;;7.13;2.00;;;;;;;17.58;80.18;96419.75;4969444;28;20551;-73
2022/07/29 02:16:47;;;;;;;6.72;1.60;;;;;;;17.50;80.40;96424.72;4970339;28;20490;-73
2022/07/29 02:19:15;;;;;;;6.82;1.77;;;;;;;17.46;79.76;96425.63;4966281;28;20074;-73
2022/07/29 02:21:42;;;;;;;4.22;1.52;;;;;;;17.41;80.60;96412.97;4967717;28;20084;-72
2022/07/29 02:24:11;;;;;;;11.10;1.90;;;;;;;17.39;81.16;96412.47;4966727;28;20178;-73
2022/07/29 02:26:38;;;;;;;9.80;1.90;;;;;;;17.40;81.43;96410.56;4968408;28;20035;-73
2022/07/29 02:29:04;;;;;;;7.50;1.67;;;;;;;17.43;81.54;96402.69;4968520;28;20121;-73
2022/07/29 02:31:34;;;;;;;6.03;1.80;;;;;;;17.43;82.48;96404.56;4969741;28;20038;-73
2022/07/29 02:34:03;;;;;;;8.25;1.88;;;;;;;17.44;83.56;96389.97;4966598;28;20121;-73
2022/07/29 02:36:30;;;;;;;9.20;1.50;;;;;;;17.42;84.48;96394.84;4968693;28;20177;-73
2022/07/29 02:39:00;;;;;;;3.67;1.40;;;;;;;17.37;84.21;96392.22;4968102;28;20129;-73
2022/07/29 02:41:52;;;;;;;6.18;1.67;;;;;;;17.35;85.53;96389.78;4965867;28;20031;-73
2022/07/29 02:44:19;;;;;;;6.18;1.65;;;;;;;17.28;85.08;96386.69;4967341;28;20034;-73
2022/07/29 02:46:58;;;;;;;4.25;1.60;;;;;;;17.21;85.49;96383.53;4965064;28;20277;-72
2022/07/29 02:49:24;;;;;;;6.90;1.73;;;;;;;17.17;86.25;96387.91;4965585;28;20062;-73
2022/07/29 02:51:58;;;;;;;9.90;1.90;;;;;;;17.12;86.96;96385.25;4968082;28;20141;-74
2022/07/29 02:54:44;;;;;;;4.15;1.65;;;;;;;17.04;89.82;96375.09;4968198;28;20241;-73
2022/07/29 02:57:26;;;;;;;5.35;1.48;;;;;;;17.02;90.04;96374.59;4965441;28;20664;-73
2022/07/29 02:59:52;;;;;;;5.45;1.65;;;;;;;17.07;88.75;96377.25;4969561;28;20758;-73
2022/07/29 03:02:19;;;;;;;8.50;2.08;;;;;;;17.04;89.57;96375.91;4967080;28;20129;-72
2022/07/29 03:04:45;;;;;;;6.22;2.13;;;;;;;16.96;89.73;96381.97;4948105;28;20229;-73
2022/07/29 03:07:14;;;;;;;4.22;1.60;;;;;;;16.91;90.41;96385.56;4966689;28;20042;-73
2022/07/29 03:09:42;;;;;;;7.57;1.80;;;;;;;16.91;89.53;96382.84;4967986;28;20053;-73
2022/07/29 03:12:08;;;;;;;6.05;1.83;;;;;;;16.92;89.85;96381.75;4967187;28;20035;-73
2022/07/29 03:14:35;;;;;;;5.35;1.77;;;;;;;16.92;89.49;96379.03;4968133;28;20054;-73
2022/07/29 03:17:02;;;;;;;10.25;2.00;;;;;;;16.84;89.98;96377.00;4965878;28;20031;-73
2022/07/29 03:19:28;;;;;;;5.65;2.10;;;;;;;16.78;89.37;96383.53;4967132;28;20112;-73
2022/07/29 03:21:56;;;;;;;8.73;1.50;;;;;;;16.75;89.72;96389.53;4968309;28;20038;-73
2022/07/29 03:24:32;;;;;;;8.82;1.73;;;;;;;16.61;90.64;96391.31;4966024;28;20939;-72
2022/07/29 03:26:59;;;;;;;7.55;1.67;;;;;;;16.56;90.63;96394.06;4969524;28;20050;-73
2022/07/29 03:29:25;;;;;;;6.90;1.50;;;;;;;16.44;91.54;96395.28;4966818;28;20030;-73
2022/07/29 03:31:51;;;;;;;8.23;1.73;;;;;;;16.34;93.12;96397.25;4965988;28;20042;-73
2022/07/29 03:34:16;;;;;;;4.80;1.83;;;;;;;16.21;92.60;96384.47;4965884;28;20018;-72
2022/07/29 03:36:42;;;;;;;6.72;1.77;;;;;;;16.19;92.43;96392.03;4964745;28;20038;-73
2022/07/29 03:39:10;;;;;;;3.65;1.80;;;;;;;16.08;93.54;96386.72;4965815;28;20358;-73
2022/07/29 03:41:37;;;;;;;9.02;2.10;;;;;;;15.99;93.97;96393.84;4969359;28;20456;-73
2022/07/29 03:44:05;;;;;;;6.90;2.15;;;;;;;15.88;94.86;96395.84;4965611;28;20326;-73
2022/07/29 03:46:32;;;;;;;6.10;1.92;;;;;;;15.81;95.48;96387.25;4965711;28;20043;-73
2022/07/29 03:49:00;;;;;;;4.75;1.75;;;;;;;15.69;96.35;96384.13;4963991;28;20053;-73
2022/07/29 03:51:26;;;;;;;4.82;1.80;;;;;;;15.53;97.21;96383.41;4965168;28;21019;-73
2022/07/29 03:53:52;;;;;;;7.18;1.92;;;;;;;15.45;97.85;96380.50;4965310;28;20038;-73
2022/07/29 03:56:21;;;;;;;5.15;2.08;;;;;;;15.43;97.61;96385.38;4964201;28;20057;-73
2022/07/29 03:58:49;;;;;;;6.95;1.90;;;;;;;15.39;97.73;96385.13;4964831;28;20473;-73
2022/07/29 04:01:17;;;;;;;4.97;2.08;;;;;;;15.37;98.04;96378.41;4965613;28;20695;-73
2022/07/29 04:03:45;;;;;;;7.55;1.60;;;;;;;15.33;98.56;96386.25;4964555;28;20065;-73
2022/07/29 04:06:11;;;;;;;6.65;2.10;;;;;;;15.31;98.06;96386.53;4965157;28;20102;-73
2022/07/29 04:08:36;;;;;;;10.43;2.08;;;;;;;15.28;98.48;96399.75;4965266;28;20064;-73
2022/07/29 04:11:03;;;;;;;7.85;1.88;;;;;;;15.24;98.12;96394.09;4966863;28;20045;-73
2022/07/29 04:13:29;;;;;;;5.10;1.75;;;;;;;15.21;99.22;96394.69;4965007;28;20038;-73
2022/07/29 04:15:55;;;;;;;4.25;1.77;;;;;;;15.19;99.55;96396.84;4964162;28;20042;-73
2022/07/29 04:18:21;;;;;;;6.95;2.00;;;;;;;15.19;99.39;96404.94;4964567;28;20030;-73
2022/07/29 04:20:46;;;;;;;8.50;1.90;;;;;;;15.22;97.87;96392.78;4953047;28;20385;-73
2022/07/29 04:23:12;;;;;;;5.65;2.05;;;;;;;15.17;100.00;96382.84;4965230;28;20854;-73
2022/07/29 04:25:39;;;;;;;8.82;2.20;;;;;;;15.13;100.00;96394.47;4965515;28;20457;-73
2022/07/29 04:28:06;;;;;;;5.72;2.10;;;;;;;15.10;100.00;96389.63;4962664;28;20031;-73
2022/07/29 04:30:33;;;;;;;4.45;2.20;;;;;;;15.11;99.82;96397.44;4966425;28;20145;-73
2022/07/29 04:33:00;;;;;;;7.15;2.22;;;;;;;15.17;99.85;96401.69;4963501;28;20037;-71
2022/07/29 04:35:26;;;;;;;5.53;1.75;;;;;;;15.21;99.12;96399.25;4964501;28;20031;-71
2022/07/29 04:37:52;;;;;;;4.88;1.98;;;;;;;15.24;100.00;96396.81;4963559;28;20565;-71
2022/07/29 04:40:18;;;;;;;7.65;2.10;;;;;;;15.29;98.80;96404.88;4963581;28;20331;-71
2022/07/29 04:42:43;;;;;;;4.45;2.10;;;;;;;15.45;98.56;96399.38;4966222;28;20117;-72
2022/07/29 04:45:09;;;;;;;6.35;1.98;;;;;;;15.60;97.51;96389.28;4965738;28;20341;-71
2022/07/29 04:47:34;;;;;;;4.45;2.00;;;;;;;15.78;96.87;96395.91;4964253;28;20283;-71
2022/07/29 04:50:00;;;;;;;7.28;2.08;;;;;;;15.96;95.13;96397.13;4963626;28;20038;-71
2022/07/29 04:52:25;;;;;;;8.25;2.30;;;;;;;16.08;95.43;96392.13;4963249;28;20026;-71
2022/07/29 04:54:51;;;;;;;7.03;2.33;;;;;;;16.15;95.61;96391.78;4964741;28;20298;-71
2022/07/29 04:57:16;;;;;;;9.13;2.10;;;;;;;16.21;95.30;96396.06;4962287;28;20042;-71
2022/07/29 04:59:42;;;;;;;7.03;2.55;;;;;;;16.26;95.80;96398.69;4965508;28;20038;-71
2022/07/29 05:02:07;;;;;;;7.07;2.30;;;;;;;16.34;95.26;96395.38;4964948;28;20034;-71
2022/07/29 05:04:33;;;;;;;5.03;2.00;;;;;;;16.36;95.32;96400.50;4965635;28;20046;-71
2022/07/29 05:06:58;;;;;;;6.38;2.30;;;;;;;16.39;94.89;96395.31;4962473;28;20058;-72
2022/07/29 05:09:24;;;;;;;6.40;2.08;;;;;;;16.45;94.90;96404.19;4966284;28;20764;-71
2022/07/29 05:11:49;;;;;;;6.95;2.30;;;;;;;16.55;94.72;96398.66;4964382;28;20482;-71
2022/07/29 05:14:15;;;;;;;6.65;2.13;;;;;;;16.62;94.38;96403.72;4963293;28;20262;-71
2022/07/29 05:16:40;;;;;;;8.10;2.10;;;;;;;16.67;94.75;96400.97;4965667;28;20085;-71
2022/07/29 05:19:06;;;;;;;7.28;2.38;;;;;;;16.78;92.98;96402.47;4962509;28;20034;-71
2022/07/29 05:21:31;;;;;;;6.80;1.90;;;;;;;16.85;93.33;96415.63;4966210;28;20413;-71
2022/07/29 05:23:57;;;;;;;7.75;2.85;;;;;;;16.95;93.48;96402.78;4963043;28;20112;-71
2022/07/29 05:26:23;;;;;;;19.08;4.57;;;;;;;17.01;92.21;96406.22;4964445;28;22087;-71
2022/07/29 05:28:48;;;;;;;8.07;2.20;;;;;;;17.17;92.68;96412.22;4959779;28;20086;-71
2022/07/29 05:31:14;;;;;;;4.43;2.10;;;;;;;17.26;90.78;96403.16;4963952;28;20031;-71
2022/07/29 05:33:40;;;;;;;11.57;2.17;;;;;;;17.41;91.33;96421.06;4960813;28;20062;-71
2022/07/29 05:36:06;;;;;;;6.30;2.20;;;;;;;17.52;89.90;96421.75;4966346;28;20526;-71
2022/07/29 05:38:33;;;;;;;7.30;2.30;;;;;;;17.61;89.65;96427.31;4965139;28;20042;-72
2022/07/29 05:40:59;;;;;;;4.25;1.83;;;;;;;17.75;89.11;96420.88;4963237;28;20030;-72
2022/07/29 05:43:26;;;;;;;6.80;2.30;;;;;;;17.95;87.96;96424.34;4963994;28;20623;-72
2022/07/29 05:45:52;;;;;;;11.70;2.40;;;;;;;18.08;88.10;96421.69;4966045;28;20102;-72
2022/07/29 05:48:17;;;;;;;6.82;2.30;;;;;;;18.29;86.40;96435.69;4963538;28;20351;-72
2022/07/29 05:50:43;;;;;;;7.18;2.05;;;;;;;18.43;86.45;96434.88;4966823;28;20081;-72
2022/07/29 05:53:13;;;;;;;5.63;2.00;;;;;;;18.63;86.50;96439.94;4963246;28;20046;-72
2022/07/29 05:55:38;;;;;;;10.88;2.20;;;;;;;18.76;85.51;96441.09;4965848;28;20046;-72
2022/07/29 05:58:07;;;;;;;6.95;2.50;;;;;;;18.87;85.02;96453.31;4963882;28;20140;-72
2022/07/29 06:00:32;;;;;;;8.63;2.28;;;;;;;19.06;85.04;96453.19;4966227;28;20524;-72
2022/07/29 06:02:58;;;;;;;7.75;2.33;;;;;;;19.02;86.05;96450.31;4962569;28;20105;-72
2022/07/29 06:05:23;;;;;;;6.75;2.00;;;;;;;19.09;85.57;96460.75;4965593;28;20553;-71
2022/07/29 06:07:49;;;;;;;5.80;2.00;;;;;;;19.02;86.18;96457.63;4961545;28;20141;-72
2022/07/29 06:10:14;;;;;;;9.18;2.55;;;;;;;18.89;86.80;96457.31;4961052;28;20057;-72
2022/07/29 06:12:40;;;;;;;6.60;2.33;;;;;;;18.81;87.08;96457.22;4961642;28;20403;-71
2022/07/29 06:15:05;;;;;;;6.68;2.15;;;;;;;18.69;88.03;96459.66;4964042;28;20416;-72
2022/07/29 06:17:31;;;;;;;5.32;2.22;;;;;;;18.55;87.83;96467.72;4964467;28;20097;-72
2022/07/29 06:19:57;;;;;;;8.13;2.83;;;;;;;18.48;88.67;96464.59;4946786;28;20250;-72
2022/07/29 06:22:22;;;;;;;6.65;2.05;;;;;;;18.58;89.80;96467.91;4963193;28;20461;-72
2022/07/29 06:24:48;;;;;;;6.40;2.28;;;;;;;18.59;90.72;96464.09;4965252;28;20557;-72
2022/07/29 06:27:13;;;;;;;7.38;2.20;;;;;;;18.62;89.73;96458.09;4964630;28;21116;-71
2022/07/29 06:29:39;;;;;;;5.97;2.40;;;;;;;18.59;89.48;96466.81;4962424;28;20125;-72
2022/07/29 06:32:05;;;;;;;4.13;2.20;;;;;;;18.77;89.59;96461.66;4962171;28;20413;-71
2022/07/29 06:34:33;;;;;;;6.05;2.20;;;;;;;18.96;87.80;96456.94;4965414;28;20038;-72
2022/07/29 06:36:58;;;;;;;7.10;2.60;;;;;;;19.15;88.43;96462.25;4965520;28;20045;-72
2022/07/29 06:39:23;;;;;;;11.18;2.58;;;;;;;19.35;87.32;96461.81;4963568;28;20038;-72
2022/07/29 06:41:50;;;;;;;6.22;2.60;;;;;;;19.55;87.20;96457.84;4945578;28;20030;-72
2022/07/29 06:44:17;;;;;;;7.57;2.30;;;;;;;19.57;86.77;96468.44;4963152;28;20405;-72
2022/07/29 06:46:43;;;;;;;7.50;2.72;;;;;;;19.39;87.37;96475.59;4963872;28;20034;-72
2022/07/29 06:49:09;;;;;;;12.43;2.95;;;;;;;19.34;88.33;96476.47;4945891;28;20045;-71
2022/07/29 06:51:35;;;;;;;10.70;2.83;;;;;;;19.33;88.58;96480.31;4962751;28;20034;-72
2022/07/29 06:54:02;;;;;;;10.55;2.70;;;;;;;19.55;89.65;96474.13;4962444;28;20110;-73
2022/07/29 06:56:29;;;;;;;6.80;2.50;;;;;;;19.59;88.33;96477.06;4963663;28;20038;-72
2022/07/29 06:58:55;;;;;;;13.80;2.63;;;;;;;19.68;87.60;96481.44;4967281;28;20046;-72
2022/07/29 07:01:20;;;;;;;12.68;3.10;;;;;;;19.57;88.30;96488.22;4968051;28;20569;-72
2022/07/29 07:03:46;;;;;;;9.65;3.10;;;;;;;19.39;88.88;96483.72;4948164;28;20268;-72
2022/07/29 07:06:11;;;;;;;8.65;2.90;;;;;;;19.23;88.79;96494.09;4968066;28;20121;-72
2022/07/29 07:08:37;;;;;;;10.48;3.10;;;;;;;19.17;88.96;96501.53;4964071;28;20098;-73
2022/07/29 07:11:03;;;;;;;6.07;2.80;;;;;;;19.21;89.87;96497.09;4967720;28;20521;-71
2022/07/29 07:13:34;;;;;;;22.40;3.97;;;;;;;19.52;89.28;96501.88;4967320;28;20038;-72
2022/07/29 07:16:01;;;;;;;10.30;2.47;;;;;;;19.68;87.39;96508.59;4967850;28;20410;-72
2022/07/29 07:18:26;;;;;;;8.82;2.80;;;;;;;19.93;88.06;96503.72;4967282;28;20037;-72
2022/07/29 07:20:52;;;;;;;11.63;2.72;;;;;;;20.10;86.23;96503.84;4963828;28;20501;-72
2022/07/29 07:23:17;;;;;;;9.18;2.78;;;;;;;20.24;87.44;96496.44;4965208;28;20034;-71
2022/07/29 07:25:43;;;;;;;14.30;2.80;;;;;;;20.44;84.59;96494.34;4967681;28;20045;-71
2022/07/29 07:28:08;;;;;;;6.80;2.47;;;;;;;20.59;84.43;96492.06;4967852;28;20026;-72
2022/07/29 07:30:34;;;;;;;9.38;2.70;;;;;;;20.71;83.77;96494.19;4966281;28;20038;-72
2022/07/29 07:33:00;;;;;;;9.07;2.63;;;;;;;20.70;84.91;96497.22;4966796;28;20064;-72
2022/07/29 07:35:27;;;;;;;7.90;2.53;;;;;;;20.74;84.46;96499.00;4966802;28;20224;-72
2022/07/29 07:37:53;;;;;;;8.82;3.00;;;;;;;20.76;84.51;96498.69;4966329;28;20541;-73
2022/07/29 07:40:19;;;;;;;9.25;2.65;;;;;;;20.74;85.33;96496.28;4967024;28;20042;-72
2022/07/29 07:42:45;;;;;;;9.35;2.85;;;;;;;20.86;83.86;96496.50;4948658;28;20022;-72
2022/07/29 07:45:11;;;;;;;7.68;2.50;;;;;;;20.91;83.60;96501.00;4965370;28;20046;-73
2022/07/29 07:47:38;;;;;;;7.32;2.88;;;;;;;21.04;85.58;96499.31;4967049;28;20073;-73
2022/07/29 07:50:06;;;;;;;12.40;2.90;;;;;;;21.17;83.33;96498.41;4966440;28;20062;-71
2022/07/29 07:52:32;;;;;;;10.40;2.50;;;;;;;21.35;82.83;96496.53;4965028;28;20035;-72
2022/07/29 07:54:58;;;;;;;8.27;2.55;;;;;;;21.36;83.21;96496.22;4966655;28;20078;-72
2022/07/29 07:57:23;;;;;;;8.40;2.80;;;;;;;20.98;85.24;96500.56;4965688;28;20699;-72
2022/07/29 07:59:49;;;;;;;6.45;2.63;;;;;;;20.76;84.13;96494.06;4966142;28;20101;-72
2022/07/29 08:02:14;;;;;;;15.68;2.83;;;;;;;20.91;83.55;96494.75;4966470;28;20034;-72
2022/07/29 08:04:40;;;;;;;10.60;2.80;;;;;;;21.01;82.57;96508.91;4967990;28;20038;-72
2022/07/29 08:07:07;;;;;;;7.88;2.92;;;;;;;20.91;82.95;96500.19;4965078;28;20061;-71
2022/07/29 08:09:34;;;;;;;6.25;2.78;;;;;;;20.91;82.65;96511.06;4965466;28;20045;-72
2022/07/29 08:12:03;;;;;;;12.55;2.85;;;;;;;20.97;84.18;96510.63;4964809;28;20475;-72
2022/07/29 08:14:31;;;;;;;10.13;2.90;;;;;;;21.00;83.51;96518.16;4967501;28;20378;-72
2022/07/29 08:16:57;;;;;;;10.10;3.00;;;;;;;21.07;83.05;96514.97;4965983;28;20038;-72
2022/07/29 08:19:22;;;;;;;10.98;3.63;;;;;;;21.23;83.53;96508.00;4967446;28;20629;-72
2022/07/29 08:21:48;;;;;;;7.93;3.00;;;;;;;21.51;81.24;96510.50;4967852;28;20359;-72
2022/07/29 08:26:57;;;;;;;8.05;2.58;;;;;;;21.75;80.68;96510.06;4967483;28;20189;-71
2022/07/29 08:29:23;;;;;;;7.65;2.60;;;;;;;21.88;78.63;96509.94;4965618;28;20513;-72
2022/07/29 08:31:48;;;;;;;8.20;2.95;;;;;;;21.91;80.36;96500.31;4964987;28;20035;-71
2022/07/29 08:34:14;;;;;;;9.70;2.78;;;;;;;21.85;79.51;96509.75;4966351;28;20034;-72
2022/07/29 08:36:39;;;;;;;8.90;2.67;;;;;;;22.10;78.83;96510.91;4967626;28;20042;-71
2022/07/29 08:39:05;;;;;;;10.30;2.75;;;;;;;22.63;76.36;96513.25;4966441;28;20065;-71
2022/07/29 08:41:31;;;;;;;8.98;2.88;;;;;;;22.95;77.57;96511.09;4967114;28;20397;-71
2022/07/29 08:43:56;;;;;;;10.02;2.70;;;;;;;23.42;74.69;96514.56;4964490;28;20291;-72
2022/07/29 08:46:22;;;;;;;11.73;2.85;;;;;;;23.69;72.70;96513.34;4965435;28;20042;-72
2022/07/29 08:48:48;;;;;;;4.30;2.45;;;;;;;23.98;68.70;96515.22;4963649;28;20127;-72
2022/07/29 08:51:21;;;;;;;8.90;2.78;;;;;;;23.93;66.88;96515.41;4941910;28;20494;-72
2022/07/29 08:53:50;;;;;;;7.30;2.85;;;;;;;23.51;63.95;96512.63;4965998;28;20130;-72
2022/07/29 08:56:18;;;;;;;11.43;3.00;;;;;;;24.06;64.00;96513.56;4966869;28;20316;-72
2022/07/29 08:58:44;;;;;;;6.75;2.55;;;;;;;24.26;69.37;96511.94;4964793;28;20117;-71
2022/07/29 09:01:11;;;;;;;8.15;2.78;;;;;;;24.48;66.79;96508.84;4948284;28;20047;-72
2022/07/29 09:03:39;;;;;;;10.30;2.80;;;;;;;24.71;63.43;96507.34;4962466;28;20089;-72
2022/07/29 09:06:05;;;;;;;10.48;2.90;;;;;;;24.49;57.81;96510.44;4967222;28;20636;-71
2022/07/29 09:08:32;;;;;;;5.57;2.80;;;;;;;24.18;60.94;96502.66;4964786;28;20353;-72
2022/07/29 09:10:59;;;;;;;6.03;3.35;;;;;;;24.27;65.61;96505.31;4967633;28;20250;-71
2022/07/29 09:13:25;;;;;;;12.48;2.78;;;;;;;24.45;64.50;96507.59;4965488;28;20592;-72
2022/07/29 09:15:51;;;;;;;13.18;3.03;;;;;;;24.59;64.73;96493.63;4966422;28;20042;-72
2022/07/29 09:18:42;;;;;;;6.97;2.97;;;;;;;24.73;62.78;96499.56;4964093;28;20089;-71
2022/07/29 09:24:12;;;;;;;6.72;2.75;;;;;;;24.80;61.51;96500.97;4965443;28;20385;-72
2022/07/29 09:26:44;;;;;;;6.97;2.80;;;;;;;23.90;66.41;96505.16;4965616;28;20039;-72
2022/07/29 09:29:11;;;;;;;10.25;3.63;;;;;;;23.63;68.80;96501.78;4963328;28;20034;-71
2022/07/29 09:31:39;;;;;;;6.78;2.75;;;;;;;23.78;71.84;96499.63;4968220;28;20034;-73
2022/07/29 09:34:06;;;;;;;12.38;3.00;;;;;;;23.73;70.12;96499.78;4946056;28;20034;-73
2022/07/29 09:36:46;;;;;;;10.77;3.30;;;;;;;23.65;70.39;96506.13;4967264;28;20030;-73
2022/07/29 09:39:12;;;;;;;7.37;3.27;;;;;;;23.89;69.41;96501.63;4961627;28;20625;-73
2022/07/29 09:41:49;;;;;;;8.18;2.60;;;;;;;24.57;67.22;96498.63;4965535;28;20030;-73
2022/07/29 09:44:15;;;;;;;8.93;2.95;;;;;;;24.98;64.04;96485.94;4963577;28;20042;-73
2022/07/29 09:46:52;;;;;;;8.57;2.47;;;;;;;24.90;67.34;96489.56;4963885;28;20037;-73
2022/07/29 09:49:17;;;;;;;5.88;2.50;;;;;;;25.50;63.63;96482.56;4962465;28;20026;-73
2022/07/29 09:51:43;;;;;;;7.65;2.85;;;;;;;25.71;61.20;96491.47;4965938;28;20127;-73
2022/07/29 09:54:27;;;;;;;6.45;2.63;;;;;;;25.85;58.28;96484.81;4965937;28;20041;-73
2022/07/29 09:56:54;;;;;;;7.57;2.97;;;;;;;26.25;56.00;96488.34;4963604;28;20085;-74
2022/07/29 09:59:22;;;;;;;12.95;2.88;;;;;;;26.51;55.50;96484.38;4966652;28;20076;-73
2022/07/29 10:01:49;;;;;;;6.65;2.40;;;;;;;26.43;56.07;96480.63;4962251;28;20257;-73
2022/07/29 10:04:15;;;;;;;7.82;2.63;;;;;;;26.83;56.34;96485.22;4945854;28;20477;-73
2022/07/29 10:06:57;;;;;;;8.45;2.63;;;;;;;27.25;51.96;96480.03;4962902;28;20160;-73
2022/07/29 10:09:23;;;;;;;5.75;2.70;;;;;;;26.84;54.72;96484.06;4963870;28;20096;-73
2022/07/29 10:12:13;;;;;;;7.70;2.60;;;;;;;27.35;49.13;96479.47;4946629;28;20062;-73
2022/07/29 10:14:42;;;;;;;8.30;2.80;;;;;;;27.61;48.05;96481.66;4963884;28;20042;-74
2022/07/29 10:17:09;;;;;;;6.80;2.35;;;;;;;27.75;48.97;96490.25;4962945;28;20095;-73
2022/07/29 10:19:37;;;;;;;6.95;2.80;;;;;;;27.96;46.10;96481.69;4964801;28;20038;-73
2022/07/29 10:22:08;;;;;;;7.72;2.20;;;;;;;27.75;45.27;96486.69;4965569;28;20466;-73
2022/07/29 10:24:33;;;;;;;4.82;2.15;;;;;;;27.77;48.46;96481.63;4964380;28;20038;-73
2022/07/29 10:27:02;;;;;;;6.15;2.40;;;;;;;27.92;45.39;96480.78;4966228;28;20382;-74
2022/07/29 10:29:33;;;;;;;7.68;3.05;;;;;;;28.25;47.10;96477.56;4797508;28;10001455;-73
2022/07/29 10:32:17;;;;;;;5.50;2.22;;;;;;;28.49;44.11;96473.75;4961339;28;20306;-74
2022/07/29 10:35:12;;;;;;;8.57;2.40;;;;;;;28.98;42.02;96469.53;4966776;28;20387;-74
2022/07/29 10:37:56;;;;;;;4.93;2.28;;;;;;;29.37;41.18;96475.66;4969047;28;20038;-74
2022/07/29 10:43:29;;;;;;;7.55;2.30;;;;;;;29.16;41.45;96476.13;4963608;28;20354;-73
2022/07/29 10:45:59;;;;;;;4.80;2.20;;;;;;;29.15;39.80;96469.03;4966306;28;20286;-74
2022/07/29 10:48:26;;;;;;;5.63;2.38;;;;;;;28.92;42.97;96471.78;4964001;28;20042;-73
2022/07/29 10:50:56;;;;;;;5.95;2.08;;;;;;;28.79;43.38;96473.06;4949424;28;20034;-73
2022/07/29 10:53:23;;;;;;;6.47;2.20;;;;;;;28.87;44.63;96469.28;4968640;28;20037;-73
2022/07/29 10:55:51;;;;;;;4.18;2.20;;;;;;;29.75;41.81;96465.63;4966503;28;20042;-73
2022/07/29 10:58:23;;;;;;;6.00;2.67;;;;;;;29.98;39.90;96463.59;4962574;28;20077;-74
2022/07/29 11:00:51;;;;;;;8.48;2.55;;;;;;;29.31;42.60;96464.16;4966287;28;20765;-73
2022/07/29 11:03:42;;;;;;;5.65;2.10;;;;;;;29.08;40.63;96461.44;4938598;28;20497;-74
2022/07/29 11:06:07;;;;;;;5.60;2.50;;;;;;;29.47;41.34;96464.00;4966541;28;20132;-74
2022/07/29 11:08:33;;;;;;;8.05;2.35;;;;;;;29.27;40.01;96465.28;4952879;28;20161;-73
2022/07/29 11:11:27;;;;;;;7.75;2.20;;;;;;;28.97;40.53;96465.97;4965003;28;20038;-74
2022/07/29 11:13:54;;;;;;;4.68;1.77;;;;;;;29.80;39.37;96459.78;4964317;28;20042;-74
2022/07/29 11:16:22;;;;;;;4.30;2.28;;;;;;;30.10;36.95;96462.56;4966669;28;20055;-74
2022/07/29 11:19:12;;;;;;;5.22;2.20;;;;;;;30.97;36.18;96454.84;4963996;28;20218;-73
2022/07/29 11:21:39;;;;;;;7.88;2.47;;;;;;;32.09;35.61;96452.50;4967916;28;20047;-74
2022/07/29 11:24:20;;;;;;;5.80;2.10;;;;;;;33.81;31.70;96448.78;4963519;28;20030;-72
2022/07/29 11:27:08;;;;;;;7.22;2.42;;;;;;;34.69;29.08;96448.84;4964048;28;20038;-72
2022/07/29 11:29:37;;;;;;;7.82;2.30;;;;;;;35.20;28.39;96447.34;4965002;28;20111;-72
2022/07/29 11:32:14;;;;;;;6.32;2.40;;;;;;;35.80;26.58;96445.97;4963021;28;20246;-72
2022/07/29 11:34:41;;;;;;;3.90;2.03;;;;;;;36.69;26.31;96442.94;4964824;28;20583;-72
2022/07/29 11:37:06;;;;;;;6.95;2.50;;;;;;;37.14;25.93;96441.91;4968142;28;20084;-72
2022/07/29 11:39:37;;;;;;;6.13;2.13;;;;;;;37.78;25.17;96438.03;4964165;28;20117;-71
2022/07/29 11:42:21;;;;;;;5.05;2.10;;;;;;;37.74;24.93;96440.84;4965531;28;20386;-72
2022/07/29 11:45:14;;;;;;;3.85;2.13;;;;;;;40.53;21.39;96432.25;4967137;28;20149;-72
2022/07/29 11:47:41;;;;;;;4.93;1.85;;;;;;;42.02;19.94;96444.19;4964952;28;20217;-72
2022/07/29 11:50:10;;;;;;;8.30;2.40;;;;;;;42.74;20.02;96438.78;4945868;28;20101;-72